sensor_id;sensor_type;location;lat;lon;timestamp;P1;durP1;ratioP1;P2;durP2;ratioP2
6626;SDS011;3349;49.830;8.748;2023-04-15T00:00:06;8.32;;;4.25;;
6626;SDS011;3349;49.830;8.748;2023-04-15T00:02:34;6.32;;;3.90;;
6626;SDS011;3349;49.830;8.748;2023-04-15T00:05:01;6.07;;;5.05;;
6626;SDS011;3349;49.830;8.748;2023-04-15T00:07:28;5.03;;;3.55;;
6626;SDS011;3349;49.830;8.748;2023-04-15T00:09:55;8.45;;;3.78;;
6626;SDS011;3349;49.830;8.748;2023-04-15T00:12:24;6.90;;;4.22;;
6626;SDS011;3349;49.830;8.748;2023-04-15T00:14:52;4.45;;;3.88;;
6626;SDS011;3349;49.830;8.748;2023-04-15T00:17:19;6.45;;;4.07;;
6626;SDS011;3349;49.830;8.748;2023-04-15T00:19:46;7.57;;;4.28;;
6626;SDS011;3349;49.830;8.748;2023-04-15T00:22:13;8.68;;;4.78;;
6626;SDS011;3349;49.830;8.748;2023-04-15T00:24:40;6.65;;;4.40;;
6626;SDS011;3349;49.830;8.748;2023-04-15T00:27:07;7.22;;;4.10;;
6626;SDS011;3349;49.830;8.748;2023-04-15T00:29:35;8.77;;;4.40;;
6626;SDS011;3349;49.830;8.748;2023-04-15T00:32:02;6.97;;;4.05;;
6626;SDS011;3349;49.830;8.748;2023-04-15T00:34:29;7.70;;;4.05;;
6626;SDS011;3349;49.830;8.748;2023-04-15T00:36:55;6.15;;;4.18;;
6626;SDS011;3349;49.830;8.748;2023-04-15T00:39:22;6.57;;;3.88;;
6626;SDS011;3349;49.830;8.748;2023-04-15T00:41:49;6.95;;;4.30;;
6626;SDS011;3349;49.830;8.748;2023-04-15T00:44:16;5.95;;;4.00;;
6626;SDS011;3349;49.830;8.748;2023-04-15T00:46:45;6.90;;;4.38;;
6626;SDS011;3349;49.830;8.748;2023-04-15T00:49:13;7.57;;;4.07;;
6626;SDS011;3349;49.830;8.748;2023-04-15T00:51:40;7.10;;;4.20;;
6626;SDS011;3349;49.830;8.748;2023-04-15T00:54:07;6.78;;;3.90;;
6626;SDS011;3349;49.830;8.748;2023-04-15T00:56:34;6.28;;;4.05;;
6626;SDS011;3349;49.830;8.748;2023-04-15T00:59:03;6.28;;;4.32;;
6626;SDS011;3349;49.830;8.748;2023-04-15T01:01:30;6.18;;;4.40;;
6626;SDS011;3349;49.830;8.748;2023-04-15T01:04:00;10.45;;;4.28;;
6626;SDS011;3349;49.830;8.748;2023-04-15T01:06:28;7.68;;;4.07;;
6626;SDS011;3349;49.830;8.748;2023-04-15T01:08:56;6.50;;;4.07;;
6626;SDS011;3349;49.830;8.748;2023-04-15T01:11:23;6.40;;;4.10;;
6626;SDS011;3349;49.830;8.748;2023-04-15T01:13:51;7.00;;;4.28;;
6626;SDS011;3349;49.830;8.748;2023-04-15T01:16:18;8.52;;;4.47;;
6626;SDS011;3349;49.830;8.748;2023-04-15T01:18:45;7.60;;;4.20;;
6626;SDS011;3349;49.830;8.748;2023-04-15T01:21:14;5.18;;;3.80;;
6626;SDS011;3349;49.830;8.748;2023-04-15T01:23:41;6.93;;;3.70;;
6626;SDS011;3349;49.830;8.748;2023-04-15T01:26:13;4.82;;;3.42;;
6626;SDS011;3349;49.830;8.748;2023-04-15T01:28:41;6.95;;;4.00;;
6626;SDS011;3349;49.830;8.748;2023-04-15T01:31:09;6.10;;;4.20;;
6626;SDS011;3349;49.830;8.748;2023-04-15T01:33:37;8.02;;;3.90;;
6626;SDS011;3349;49.830;8.748;2023-04-15T01:36:05;5.78;;;3.80;;
6626;SDS011;3349;49.830;8.748;2023-04-15T01:38:34;5.75;;;3.88;;
6626;SDS011;3349;49.830;8.748;2023-04-15T01:41:01;6.30;;;4.32;;
6626;SDS011;3349;49.830;8.748;2023-04-15T01:43:30;6.03;;;3.78;;
6626;SDS011;3349;49.830;8.748;2023-04-15T01:45:57;8.85;;;4.20;;
6626;SDS011;3349;49.830;8.748;2023-04-15T01:48:23;4.60;;;3.50;;
6626;SDS011;3349;49.830;8.748;2023-04-15T01:50:52;6.38;;;4.03;;
6626;SDS011;3349;49.830;8.748;2023-04-15T01:53:21;7.70;;;4.18;;
6626;SDS011;3349;49.830;8.748;2023-04-15T01:55:48;5.53;;;3.70;;
6626;SDS011;3349;49.830;8.748;2023-04-15T01:58:15;5.65;;;4.00;;
6626;SDS011;3349;49.830;8.748;2023-04-15T02:00:43;5.65;;;4.03;;
6626;SDS011;3349;49.830;8.748;2023-04-15T02:03:10;5.22;;;4.10;;
6626;SDS011;3349;49.830;8.748;2023-04-15T02:05:37;5.13;;;3.67;;
6626;SDS011;3349;49.830;8.748;2023-04-15T02:08:04;6.68;;;4.30;;
6626;SDS011;3349;49.830;8.748;2023-04-15T02:10:30;8.65;;;4.07;;
6626;SDS011;3349;49.830;8.748;2023-04-15T02:12:57;7.30;;;3.80;;
6626;SDS011;3349;49.830;8.748;2023-04-15T02:15:24;9.02;;;3.78;;
6626;SDS011;3349;49.830;8.748;2023-04-15T02:17:52;5.65;;;3.97;;
6626;SDS011;3349;49.830;8.748;2023-04-15T02:20:19;6.50;;;3.67;;
6626;SDS011;3349;49.830;8.748;2023-04-15T02:22:46;6.20;;;3.80;;
6626;SDS011;3349;49.830;8.748;2023-04-15T02:25:13;5.00;;;3.80;;
6626;SDS011;3349;49.830;8.748;2023-04-15T02:27:41;4.70;;;3.90;;
6626;SDS011;3349;49.830;8.748;2023-04-15T02:30:08;5.78;;;3.85;;
6626;SDS011;3349;49.830;8.748;2023-04-15T02:32:36;4.53;;;3.90;;
6626;SDS011;3349;49.830;8.748;2023-04-15T02:35:05;6.25;;;3.90;;
6626;SDS011;3349;49.830;8.748;2023-04-15T02:37:34;5.97;;;3.85;;
6626;SDS011;3349;49.830;8.748;2023-04-15T02:40:06;8.40;;;3.90;;
6626;SDS011;3349;49.830;8.748;2023-04-15T02:42:33;5.70;;;3.63;;
6626;SDS011;3349;49.830;8.748;2023-04-15T02:45:00;5.97;;;4.13;;
6626;SDS011;3349;49.830;8.748;2023-04-15T02:47:27;8.05;;;3.78;;
6626;SDS011;3349;49.830;8.748;2023-04-15T02:49:54;6.75;;;4.25;;
6626;SDS011;3349;49.830;8.748;2023-04-15T02:52:23;5.88;;;3.90;;
6626;SDS011;3349;49.830;8.748;2023-04-15T02:54:50;6.90;;;3.88;;
6626;SDS011;3349;49.830;8.748;2023-04-15T02:57:17;9.88;;;4.60;;
6626;SDS011;3349;49.830;8.748;2023-04-15T02:59:44;11.77;;;6.55;;
6626;SDS011;3349;49.830;8.748;2023-04-15T03:02:11;13.32;;;5.85;;
6626;SDS011;3349;49.830;8.748;2023-04-15T03:04:38;10.50;;;6.35;;
6626;SDS011;3349;49.830;8.748;2023-04-15T03:07:05;14.05;;;8.07;;
6626;SDS011;3349;49.830;8.748;2023-04-15T03:09:33;16.08;;;7.70;;
6626;SDS011;3349;49.830;8.748;2023-04-15T03:12:00;17.30;;;8.18;;
6626;SDS011;3349;49.830;8.748;2023-04-15T03:14:27;13.40;;;7.80;;
6626;SDS011;3349;49.830;8.748;2023-04-15T03:16:53;8.73;;;5.13;;
6626;SDS011;3349;49.830;8.748;2023-04-15T03:19:20;8.40;;;4.90;;
6626;SDS011;3349;49.830;8.748;2023-04-15T03:21:47;6.78;;;4.60;;
6626;SDS011;3349;49.830;8.748;2023-04-15T03:24:14;6.95;;;4.45;;
6626;SDS011;3349;49.830;8.748;2023-04-15T03:26:42;6.70;;;3.72;;
6626;SDS011;3349;49.830;8.748;2023-04-15T03:29:09;7.75;;;3.70;;
6626;SDS011;3349;49.830;8.748;2023-04-15T03:31:36;20.98;;;10.07;;
6626;SDS011;3349;49.830;8.748;2023-04-15T03:34:02;22.33;;;12.05;;
6626;SDS011;3349;49.830;8.748;2023-04-15T03:36:29;36.42;;;14.90;;
6626;SDS011;3349;49.830;8.748;2023-04-15T03:38:57;34.42;;;15.10;;
6626;SDS011;3349;49.830;8.748;2023-04-15T03:41:23;34.10;;;15.70;;
6626;SDS011;3349;49.830;8.748;2023-04-15T03:43:52;50.35;;;22.20;;
6626;SDS011;3349;49.830;8.748;2023-04-15T03:46:18;38.90;;;17.60;;
6626;SDS011;3349;49.830;8.748;2023-04-15T03:48:45;21.52;;;9.65;;
6626;SDS011;3349;49.830;8.748;2023-04-15T03:51:12;9.57;;;5.88;;
6626;SDS011;3349;49.830;8.748;2023-04-15T03:53:39;8.85;;;4.70;;
6626;SDS011;3349;49.830;8.748;2023-04-15T03:56:06;7.45;;;4.95;;
6626;SDS011;3349;49.830;8.748;2023-04-15T03:58:33;11.13;;;8.10;;
6626;SDS011;3349;49.830;8.748;2023-04-15T04:01:02;15.20;;;10.35;;
6626;SDS011;3349;49.830;8.748;2023-04-15T04:03:28;18.02;;;10.85;;
6626;SDS011;3349;49.830;8.748;2023-04-15T04:05:55;13.82;;;9.48;;
6626;SDS011;3349;49.830;8.748;2023-04-15T04:08:22;10.52;;;6.55;;
6626;SDS011;3349;49.830;8.748;2023-04-15T04:10:49;8.18;;;5.55;;
6626;SDS011;3349;49.830;8.748;2023-04-15T04:13:16;5.22;;;3.95;;
6626;SDS011;3349;49.830;8.748;2023-04-15T04:15:42;4.85;;;3.83;;
6626;SDS011;3349;49.830;8.748;2023-04-15T04:18:11;5.05;;;3.92;;
6626;SDS011;3349;49.830;8.748;2023-04-15T04:20:37;7.65;;;3.90;;
6626;SDS011;3349;49.830;8.748;2023-04-15T04:23:05;6.03;;;3.60;;
6626;SDS011;3349;49.830;8.748;2023-04-15T04:25:32;11.45;;;6.00;;
6626;SDS011;3349;49.830;8.748;2023-04-15T04:27:58;10.18;;;5.43;;
6626;SDS011;3349;49.830;8.748;2023-04-15T04:30:25;23.13;;;13.40;;
6626;SDS011;3349;49.830;8.748;2023-04-15T04:32:52;19.90;;;13.65;;
6626;SDS011;3349;49.830;8.748;2023-04-15T04:35:20;21.35;;;15.27;;
6626;SDS011;3349;49.830;8.748;2023-04-15T04:37:47;24.60;;;17.27;;
6626;SDS011;3349;49.830;8.748;2023-04-15T04:40:15;30.15;;;15.23;;
6626;SDS011;3349;49.830;8.748;2023-04-15T04:42:41;34.55;;;15.57;;
6626;SDS011;3349;49.830;8.748;2023-04-15T04:45:08;32.67;;;16.55;;
6626;SDS011;3349;49.830;8.748;2023-04-15T04:47:36;34.83;;;14.90;;
6626;SDS011;3349;49.830;8.748;2023-04-15T04:50:03;22.27;;;11.00;;
6626;SDS011;3349;49.830;8.748;2023-04-15T04:52:32;15.40;;;7.00;;
6626;SDS011;3349;49.830;8.748;2023-04-15T04:54:59;10.68;;;4.97;;
6626;SDS011;3349;49.830;8.748;2023-04-15T04:57:25;5.60;;;4.60;;
6626;SDS011;3349;49.830;8.748;2023-04-15T04:59:52;5.75;;;4.05;;
6626;SDS011;3349;49.830;8.748;2023-04-15T05:02:19;6.53;;;4.80;;
6626;SDS011;3349;49.830;8.748;2023-04-15T05:04:45;7.43;;;5.18;;
6626;SDS011;3349;49.830;8.748;2023-04-15T05:07:14;6.95;;;5.15;;
6626;SDS011;3349;49.830;8.748;2023-04-15T05:09:42;8.23;;;4.78;;
6626;SDS011;3349;49.830;8.748;2023-04-15T05:12:09;6.18;;;4.78;;
6626;SDS011;3349;49.830;8.748;2023-04-15T05:14:38;5.18;;;3.97;;
6626;SDS011;3349;49.830;8.748;2023-04-15T05:17:05;4.43;;;3.50;;
6626;SDS011;3349;49.830;8.748;2023-04-15T05:19:32;6.20;;;4.13;;
6626;SDS011;3349;49.830;8.748;2023-04-15T05:21:59;6.43;;;3.78;;
6626;SDS011;3349;49.830;8.748;2023-04-15T05:24:26;5.65;;;3.63;;
6626;SDS011;3349;49.830;8.748;2023-04-15T05:26:54;5.05;;;3.47;;
6626;SDS011;3349;49.830;8.748;2023-04-15T05:29:21;7.00;;;3.67;;
6626;SDS011;3349;49.830;8.748;2023-04-15T05:31:48;4.97;;;3.88;;
6626;SDS011;3349;49.830;8.748;2023-04-15T05:34:14;6.93;;;3.92;;
6626;SDS011;3349;49.830;8.748;2023-04-15T05:36:41;5.60;;;3.67;;
6626;SDS011;3349;49.830;8.748;2023-04-15T05:39:08;4.78;;;3.80;;
6626;SDS011;3349;49.830;8.748;2023-04-15T05:41:35;6.05;;;3.90;;
6626;SDS011;3349;49.830;8.748;2023-04-15T05:44:03;5.95;;;3.88;;
6626;SDS011;3349;49.830;8.748;2023-04-15T05:46:30;5.50;;;3.80;;
6626;SDS011;3349;49.830;8.748;2023-04-15T05:48:57;6.25;;;4.20;;
6626;SDS011;3349;49.830;8.748;2023-04-15T05:51:24;4.97;;;3.78;;
6626;SDS011;3349;49.830;8.748;2023-04-15T05:53:51;4.35;;;3.38;;
6626;SDS011;3349;49.830;8.748;2023-04-15T05:56:18;3.97;;;3.58;;
6626;SDS011;3349;49.830;8.748;2023-04-15T05:58:45;6.78;;;3.78;;
6626;SDS011;3349;49.830;8.748;2023-04-15T06:01:13;6.05;;;3.50;;
6626;SDS011;3349;49.830;8.748;2023-04-15T06:03:41;7.60;;;3.33;;
6626;SDS011;3349;49.830;8.748;2023-04-15T06:06:08;6.82;;;3.60;;
6626;SDS011;3349;49.830;8.748;2023-04-15T06:08:35;5.00;;;3.45;;
6626;SDS011;3349;49.830;8.748;2023-04-15T06:11:02;4.45;;;3.42;;
6626;SDS011;3349;49.830;8.748;2023-04-15T06:13:29;5.32;;;3.75;;
6626;SDS011;3349;49.830;8.748;2023-04-15T06:15:56;5.25;;;3.53;;
6626;SDS011;3349;49.830;8.748;2023-04-15T06:18:25;5.13;;;3.72;;
6626;SDS011;3349;49.830;8.748;2023-04-15T06:20:51;4.47;;;3.58;;
6626;SDS011;3349;49.830;8.748;2023-04-15T06:23:18;5.70;;;4.13;;
6626;SDS011;3349;49.830;8.748;2023-04-15T06:25:45;4.78;;;4.07;;
6626;SDS011;3349;49.830;8.748;2023-04-15T06:28:12;7.65;;;5.10;;
6626;SDS011;3349;49.830;8.748;2023-04-15T06:30:38;8.15;;;5.28;;
6626;SDS011;3349;49.830;8.748;2023-04-15T06:33:05;7.40;;;5.00;;
6626;SDS011;3349;49.830;8.748;2023-04-15T06:35:33;16.05;;;10.57;;
6626;SDS011;3349;49.830;8.748;2023-04-15T06:38:00;7.45;;;6.20;;
6626;SDS011;3349;49.830;8.748;2023-04-15T06:40:27;8.35;;;6.18;;
6626;SDS011;3349;49.830;8.748;2023-04-15T06:42:54;9.45;;;6.68;;
6626;SDS011;3349;49.830;8.748;2023-04-15T06:45:21;6.80;;;4.68;;
6626;SDS011;3349;49.830;8.748;2023-04-15T06:47:48;6.85;;;4.82;;
6626;SDS011;3349;49.830;8.748;2023-04-15T06:50:15;4.85;;;3.95;;
6626;SDS011;3349;49.830;8.748;2023-04-15T06:52:43;6.97;;;5.05;;
6626;SDS011;3349;49.830;8.748;2023-04-15T06:55:09;9.25;;;6.20;;
6626;SDS011;3349;49.830;8.748;2023-04-15T06:57:36;17.55;;;11.80;;
6626;SDS011;3349;49.830;8.748;2023-04-15T07:00:03;12.38;;;9.68;;
6626;SDS011;3349;49.830;8.748;2023-04-15T07:02:31;7.90;;;6.53;;
6626;SDS011;3349;49.830;8.748;2023-04-15T07:04:58;9.85;;;6.80;;
6626;SDS011;3349;49.830;8.748;2023-04-15T07:07:25;7.35;;;5.70;;
6626;SDS011;3349;49.830;8.748;2023-04-15T07:09:53;6.57;;;5.25;;
6626;SDS011;3349;49.830;8.748;2023-04-15T07:12:21;8.05;;;5.75;;
6626;SDS011;3349;49.830;8.748;2023-04-15T07:14:48;8.18;;;5.50;;
6626;SDS011;3349;49.830;8.748;2023-04-15T07:17:15;9.55;;;6.10;;
6626;SDS011;3349;49.830;8.748;2023-04-15T07:19:42;10.25;;;7.18;;
6626;SDS011;3349;49.830;8.748;2023-04-15T07:22:08;9.82;;;7.63;;
6626;SDS011;3349;49.830;8.748;2023-04-15T07:24:35;11.55;;;7.03;;
6626;SDS011;3349;49.830;8.748;2023-04-15T07:27:03;10.60;;;6.60;;
6626;SDS011;3349;49.830;8.748;2023-04-15T07:29:30;7.97;;;6.65;;
6626;SDS011;3349;49.830;8.748;2023-04-15T07:31:57;10.52;;;6.78;;
6626;SDS011;3349;49.830;8.748;2023-04-15T07:34:24;7.13;;;6.07;;
6626;SDS011;3349;49.830;8.748;2023-04-15T07:36:51;7.78;;;6.82;;
6626;SDS011;3349;49.830;8.748;2023-04-15T07:39:18;16.65;;;7.72;;
6626;SDS011;3349;49.830;8.748;2023-04-15T07:41:45;9.73;;;6.80;;
6626;SDS011;3349;49.830;8.748;2023-04-15T07:44:14;9.15;;;6.78;;
6626;SDS011;3349;49.830;8.748;2023-04-15T07:46:40;8.13;;;6.53;;
6626;SDS011;3349;49.830;8.748;2023-04-15T07:49:07;8.55;;;6.90;;
6626;SDS011;3349;49.830;8.748;2023-04-15T07:51:34;8.52;;;6.80;;
6626;SDS011;3349;49.830;8.748;2023-04-15T07:54:01;10.82;;;7.45;;
6626;SDS011;3349;49.830;8.748;2023-04-15T07:56:28;11.90;;;8.45;;
6626;SDS011;3349;49.830;8.748;2023-04-15T07:58:56;9.40;;;6.50;;
6626;SDS011;3349;49.830;8.748;2023-04-15T08:01:27;7.45;;;6.60;;
6626;SDS011;3349;49.830;8.748;2023-04-15T08:03:54;8.82;;;6.07;;
6626;SDS011;3349;49.830;8.748;2023-04-15T08:06:21;9.00;;;6.85;;
6626;SDS011;3349;49.830;8.748;2023-04-15T08:08:48;9.32;;;6.22;;
6626;SDS011;3349;49.830;8.748;2023-04-15T08:11:16;9.60;;;7.82;;
6626;SDS011;3349;49.830;8.748;2023-04-15T08:13:43;7.90;;;6.60;;
6626;SDS011;3349;49.830;8.748;2023-04-15T08:16:15;7.03;;;6.30;;
6626;SDS011;3349;49.830;8.748;2023-04-15T08:18:45;8.63;;;6.47;;
6626;SDS011;3349;49.830;8.748;2023-04-15T08:21:12;6.53;;;5.93;;
6626;SDS011;3349;49.830;8.748;2023-04-15T08:23:39;7.65;;;6.80;;
6626;SDS011;3349;49.830;8.748;2023-04-15T08:26:06;11.48;;;8.10;;
6626;SDS011;3349;49.830;8.748;2023-04-15T08:28:33;9.07;;;7.10;;
6626;SDS011;3349;49.830;8.748;2023-04-15T08:31:00;9.63;;;6.88;;
6626;SDS011;3349;49.830;8.748;2023-04-15T08:33:27;9.60;;;7.45;;
6626;SDS011;3349;49.830;8.748;2023-04-15T08:35:56;8.10;;;7.30;;
6626;SDS011;3349;49.830;8.748;2023-04-15T08:38:23;9.68;;;7.53;;
6626;SDS011;3349;49.830;8.748;2023-04-15T08:40:50;8.10;;;7.20;;
6626;SDS011;3349;49.830;8.748;2023-04-15T08:43:18;8.65;;;6.78;;
6626;SDS011;3349;49.830;8.748;2023-04-15T08:45:48;9.77;;;7.55;;
6626;SDS011;3349;49.830;8.748;2023-04-15T08:48:16;7.65;;;6.85;;
6626;SDS011;3349;49.830;8.748;2023-04-15T08:50:44;10.25;;;6.65;;
6626;SDS011;3349;49.830;8.748;2023-04-15T08:53:14;7.05;;;6.22;;
6626;SDS011;3349;49.830;8.748;2023-04-15T08:55:41;7.55;;;6.70;;
6626;SDS011;3349;49.830;8.748;2023-04-15T08:58:10;6.63;;;5.97;;
6626;SDS011;3349;49.830;8.748;2023-04-15T09:00:37;6.03;;;5.43;;
6626;SDS011;3349;49.830;8.748;2023-04-15T09:03:05;6.25;;;5.55;;
6626;SDS011;3349;49.830;8.748;2023-04-15T09:05:33;6.90;;;5.82;;
6626;SDS011;3349;49.830;8.748;2023-04-15T09:08:00;8.43;;;5.13;;
6626;SDS011;3349;49.830;8.748;2023-04-15T09:10:29;6.20;;;4.93;;
6626;SDS011;3349;49.830;8.748;2023-04-15T09:12:56;5.18;;;4.55;;
6626;SDS011;3349;49.830;8.748;2023-04-15T09:15:23;5.72;;;4.60;;
6626;SDS011;3349;49.830;8.748;2023-04-15T09:17:51;6.35;;;4.13;;
6626;SDS011;3349;49.830;8.748;2023-04-15T09:20:18;7.32;;;4.65;;
6626;SDS011;3349;49.830;8.748;2023-04-15T09:22:46;4.68;;;4.28;;
6626;SDS011;3349;49.830;8.748;2023-04-15T09:25:24;4.07;;;3.67;;
6626;SDS011;3349;49.830;8.748;2023-04-15T09:27:54;4.28;;;3.88;;
6626;SDS011;3349;49.830;8.748;2023-04-15T09:30:22;5.15;;;3.20;;
6626;SDS011;3349;49.830;8.748;2023-04-15T09:32:49;4.93;;;3.60;;
6626;SDS011;3349;49.830;8.748;2023-04-15T09:35:17;6.28;;;3.60;;
6626;SDS011;3349;49.830;8.748;2023-04-15T09:37:44;4.45;;;3.55;;
6626;SDS011;3349;49.830;8.748;2023-04-15T09:40:11;6.22;;;3.28;;
6626;SDS011;3349;49.830;8.748;2023-04-15T09:45:22;3.70;;;2.53;;
6626;SDS011;3349;49.830;8.748;2023-04-15T09:47:49;3.10;;;2.75;;
6626;SDS011;3349;49.830;8.748;2023-04-15T09:50:17;3.92;;;2.90;;
6626;SDS011;3349;49.830;8.748;2023-04-15T09:52:45;2.72;;;2.53;;
6626;SDS011;3349;49.830;8.748;2023-04-15T09:55:13;3.33;;;2.60;;
6626;SDS011;3349;49.830;8.748;2023-04-15T09:57:41;7.50;;;2.60;;
6626;SDS011;3349;49.830;8.748;2023-04-15T10:00:10;4.00;;;2.60;;
6626;SDS011;3349;49.830;8.748;2023-04-15T10:02:38;3.30;;;2.40;;
6626;SDS011;3349;49.830;8.748;2023-04-15T10:05:06;4.78;;;2.20;;
6626;SDS011;3349;49.830;8.748;2023-04-15T10:07:35;2.63;;;1.80;;
6626;SDS011;3349;49.830;8.748;2023-04-15T10:10:05;1.73;;;1.63;;
6626;SDS011;3349;49.830;8.748;2023-04-15T10:12:33;2.08;;;1.70;;
6626;SDS011;3349;49.830;8.748;2023-04-15T10:15:03;2.38;;;1.90;;
6626;SDS011;3349;49.830;8.748;2023-04-15T10:17:32;2.95;;;1.98;;
6626;SDS011;3349;49.830;8.748;2023-04-15T10:20:01;4.00;;;2.53;;
6626;SDS011;3349;49.830;8.748;2023-04-15T10:22:30;5.60;;;3.60;;
6626;SDS011;3349;49.830;8.748;2023-04-15T10:24:58;5.68;;;4.03;;
6626;SDS011;3349;49.830;8.748;2023-04-15T10:27:25;4.78;;;3.38;;
6626;SDS011;3349;49.830;8.748;2023-04-15T10:29:56;8.75;;;5.32;;
6626;SDS011;3349;49.830;8.748;2023-04-15T10:32:27;5.55;;;3.10;;
6626;SDS011;3349;49.830;8.748;2023-04-15T10:34:56;2.72;;;2.08;;
6626;SDS011;3349;49.830;8.748;2023-04-15T10:37:32;9.35;;;6.85;;
6626;SDS011;3349;49.830;8.748;2023-04-15T10:40:00;4.05;;;2.95;;
6626;SDS011;3349;49.830;8.748;2023-04-15T10:42:43;6.00;;;3.40;;
6626;SDS011;3349;49.830;8.748;2023-04-15T10:45:14;5.68;;;4.00;;
6626;SDS011;3349;49.830;8.748;2023-04-15T10:47:42;6.03;;;4.47;;
6626;SDS011;3349;49.830;8.748;2023-04-15T10:50:11;7.72;;;4.70;;
6626;SDS011;3349;49.830;8.748;2023-04-15T10:52:39;8.13;;;5.45;;
6626;SDS011;3349;49.830;8.748;2023-04-15T10:55:11;7.53;;;4.95;;
6626;SDS011;3349;49.830;8.748;2023-04-15T10:57:41;3.60;;;3.20;;
6626;SDS011;3349;49.830;8.748;2023-04-15T11:00:10;7.30;;;4.18;;
6626;SDS011;3349;49.830;8.748;2023-04-15T11:02:39;4.95;;;4.45;;
6626;SDS011;3349;49.830;8.748;2023-04-15T11:05:08;3.58;;;2.42;;
6626;SDS011;3349;49.830;8.748;2023-04-15T11:07:37;3.00;;;2.47;;
6626;SDS011;3349;49.830;8.748;2023-04-15T11:13:16;2.40;;;1.67;;
6626;SDS011;3349;49.830;8.748;2023-04-15T11:15:46;2.25;;;1.80;;
6626;SDS011;3349;49.830;8.748;2023-04-15T11:18:13;3.15;;;2.00;;
6626;SDS011;3349;49.830;8.748;2023-04-15T11:20:42;1.95;;;1.75;;
6626;SDS011;3349;49.830;8.748;2023-04-15T11:23:12;1.92;;;1.67;;
6626;SDS011;3349;49.830;8.748;2023-04-15T11:25:40;2.05;;;1.70;;
6626;SDS011;3349;49.830;8.748;2023-04-15T11:28:07;1.70;;;1.60;;
6626;SDS011;3349;49.830;8.748;2023-04-15T11:30:35;2.20;;;1.77;;
6626;SDS011;3349;49.830;8.748;2023-04-15T11:33:04;2.30;;;1.85;;
6626;SDS011;3349;49.830;8.748;2023-04-15T11:35:32;2.33;;;1.63;;
6626;SDS011;3349;49.830;8.748;2023-04-15T11:38:01;3.67;;;2.00;;
6626;SDS011;3349;49.830;8.748;2023-04-15T11:40:30;2.10;;;1.90;;
6626;SDS011;3349;49.830;8.748;2023-04-15T11:43:03;3.92;;;2.22;;
6626;SDS011;3349;49.830;8.748;2023-04-15T11:45:34;2.70;;;2.17;;
6626;SDS011;3349;49.830;8.748;2023-04-15T11:48:05;2.95;;;2.47;;
6626;SDS011;3349;49.830;8.748;2023-04-15T11:50:34;4.05;;;2.55;;
6626;SDS011;3349;49.830;8.748;2023-04-15T11:53:02;3.40;;;2.80;;
6626;SDS011;3349;49.830;8.748;2023-04-15T11:55:32;2.50;;;2.30;;
6626;SDS011;3349;49.830;8.748;2023-04-15T11:58:08;2.20;;;2.00;;
6626;SDS011;3349;49.830;8.748;2023-04-15T12:00:36;3.03;;;2.30;;
6626;SDS011;3349;49.830;8.748;2023-04-15T12:03:16;2.70;;;2.17;;
6626;SDS011;3349;49.830;8.748;2023-04-15T12:06:04;2.65;;;2.08;;
6626;SDS011;3349;49.830;8.748;2023-04-15T12:11:39;2.50;;;1.80;;
6626;SDS011;3349;49.830;8.748;2023-04-15T12:14:08;2.13;;;1.98;;
6626;SDS011;3349;49.830;8.748;2023-04-15T12:16:38;2.47;;;2.28;;
6626;SDS011;3349;49.830;8.748;2023-04-15T12:19:06;1.90;;;1.55;;
6626;SDS011;3349;49.830;8.748;2023-04-15T12:21:36;2.72;;;2.50;;
6626;SDS011;3349;49.830;8.748;2023-04-15T12:24:04;4.65;;;3.13;;
6626;SDS011;3349;49.830;8.748;2023-04-15T12:26:34;6.65;;;4.05;;
6626;SDS011;3349;49.830;8.748;2023-04-15T12:29:04;6.63;;;3.33;;
6626;SDS011;3349;49.830;8.748;2023-04-15T12:31:32;5.07;;;3.70;;
6626;SDS011;3349;49.830;8.748;2023-04-15T12:34:00;3.92;;;2.83;;
6626;SDS011;3349;49.830;8.748;2023-04-15T12:36:29;3.95;;;3.30;;
6626;SDS011;3349;49.830;8.748;2023-04-15T12:39:00;4.90;;;2.90;;
6626;SDS011;3349;49.830;8.748;2023-04-15T12:41:28;6.45;;;2.90;;
6626;SDS011;3349;49.830;8.748;2023-04-15T12:43:56;4.43;;;3.88;;
6626;SDS011;3349;49.830;8.748;2023-04-15T12:46:24;3.50;;;3.20;;
6626;SDS011;3349;49.830;8.748;2023-04-15T12:48:51;5.55;;;3.42;;
6626;SDS011;3349;49.830;8.748;2023-04-15T12:51:18;5.30;;;3.72;;
6626;SDS011;3349;49.830;8.748;2023-04-15T12:53:46;4.05;;;3.65;;
6626;SDS011;3349;49.830;8.748;2023-04-15T12:56:13;3.97;;;3.30;;
6626;SDS011;3349;49.830;8.748;2023-04-15T12:58:40;5.07;;;3.42;;
6626;SDS011;3349;49.830;8.748;2023-04-15T13:01:08;3.45;;;3.15;;
6626;SDS011;3349;49.830;8.748;2023-04-15T13:03:36;3.75;;;3.45;;
6626;SDS011;3349;49.830;8.748;2023-04-15T13:06:03;4.65;;;3.50;;
6626;SDS011;3349;49.830;8.748;2023-04-15T13:08:31;6.25;;;3.90;;
6626;SDS011;3349;49.830;8.748;2023-04-15T13:10:58;6.65;;;5.97;;
6626;SDS011;3349;49.830;8.748;2023-04-15T13:13:25;7.68;;;5.18;;
6626;SDS011;3349;49.830;8.748;2023-04-15T13:15:52;5.75;;;5.05;;
6626;SDS011;3349;49.830;8.748;2023-04-15T13:18:19;4.28;;;3.88;;
6626;SDS011;3349;49.830;8.748;2023-04-15T13:20:49;5.93;;;4.45;;
6626;SDS011;3349;49.830;8.748;2023-04-15T13:23:16;4.65;;;4.10;;
6626;SDS011;3349;49.830;8.748;2023-04-15T13:25:43;8.15;;;6.25;;
6626;SDS011;3349;49.830;8.748;2023-04-15T13:28:10;4.13;;;3.72;;
6626;SDS011;3349;49.830;8.748;2023-04-15T13:30:37;4.60;;;4.15;;
6626;SDS011;3349;49.830;8.748;2023-04-15T13:33:05;4.28;;;3.88;;
6626;SDS011;3349;49.830;8.748;2023-04-15T13:35:31;4.72;;;3.60;;
6626;SDS011;3349;49.830;8.748;2023-04-15T13:38:00;4.00;;;3.60;;
6626;SDS011;3349;49.830;8.748;2023-04-15T13:40:27;3.55;;;3.25;;
6626;SDS011;3349;49.830;8.748;2023-04-15T13:42:54;4.50;;;3.05;;
6626;SDS011;3349;49.830;8.748;2023-04-15T13:45:22;3.45;;;3.08;;
6626;SDS011;3349;49.830;8.748;2023-04-15T13:47:49;5.30;;;3.10;;
6626;SDS011;3349;49.830;8.748;2023-04-15T13:50:16;3.65;;;3.35;;
6626;SDS011;3349;49.830;8.748;2023-04-15T13:52:43;3.78;;;2.90;;
6626;SDS011;3349;49.830;8.748;2023-04-15T13:55:12;5.35;;;2.50;;
6626;SDS011;3349;49.830;8.748;2023-04-15T13:57:39;2.53;;;2.28;;
6626;SDS011;3349;49.830;8.748;2023-04-15T14:00:07;2.10;;;1.90;;
6626;SDS011;3349;49.830;8.748;2023-04-15T14:02:35;5.07;;;3.30;;
6626;SDS011;3349;49.830;8.748;2023-04-15T14:05:02;4.78;;;3.30;;
6626;SDS011;3349;49.830;8.748;2023-04-15T14:07:30;2.75;;;2.47;;
6626;SDS011;3349;49.830;8.748;2023-04-15T14:09:58;2.10;;;1.90;;
6626;SDS011;3349;49.830;8.748;2023-04-15T14:12:26;1.70;;;1.58;;
6626;SDS011;3349;49.830;8.748;2023-04-15T14:14:53;3.22;;;2.42;;
6626;SDS011;3349;49.830;8.748;2023-04-15T14:17:20;2.42;;;1.88;;
6626;SDS011;3349;49.830;8.748;2023-04-15T14:19:47;2.05;;;1.85;;
6626;SDS011;3349;49.830;8.748;2023-04-15T14:22:14;2.55;;;1.65;;
6626;SDS011;3349;49.830;8.748;2023-04-15T14:24:42;4.03;;;3.13;;
6626;SDS011;3349;49.830;8.748;2023-04-15T14:27:09;2.92;;;2.50;;
6626;SDS011;3349;49.830;8.748;2023-04-15T14:29:37;3.67;;;2.95;;
6626;SDS011;3349;49.830;8.748;2023-04-15T14:32:05;2.03;;;1.50;;
6626;SDS011;3349;49.830;8.748;2023-04-15T14:34:32;1.95;;;1.77;;
6626;SDS011;3349;49.830;8.748;2023-04-15T14:36:58;2.20;;;2.00;;
6626;SDS011;3349;49.830;8.748;2023-04-15T14:39:25;1.98;;;1.48;;
6626;SDS011;3349;49.830;8.748;2023-04-15T14:41:52;1.48;;;1.38;;
6626;SDS011;3349;49.830;8.748;2023-04-15T14:44:19;1.45;;;1.35;;
6626;SDS011;3349;49.830;8.748;2023-04-15T14:46:48;2.38;;;1.90;;
6626;SDS011;3349;49.830;8.748;2023-04-15T14:49:16;2.85;;;2.00;;
6626;SDS011;3349;49.830;8.748;2023-04-15T14:51:42;2.30;;;1.50;;
6626;SDS011;3349;49.830;8.748;2023-04-15T14:54:10;1.60;;;1.50;;
6626;SDS011;3349;49.830;8.748;2023-04-15T14:56:37;1.88;;;1.77;;
6626;SDS011;3349;49.830;8.748;2023-04-15T14:59:04;1.70;;;1.60;;
6626;SDS011;3349;49.830;8.748;2023-04-15T15:01:31;2.40;;;1.80;;
6626;SDS011;3349;49.830;8.748;2023-04-15T15:04:00;2.25;;;1.95;;
6626;SDS011;3349;49.830;8.748;2023-04-15T15:06:27;2.20;;;2.00;;
6626;SDS011;3349;49.830;8.748;2023-04-15T15:08:54;2.00;;;1.90;;
6626;SDS011;3349;49.830;8.748;2023-04-15T15:11:21;2.25;;;1.83;;
6626;SDS011;3349;49.830;8.748;2023-04-15T15:13:47;6.45;;;2.17;;
6626;SDS011;3349;49.830;8.748;2023-04-15T15:16:14;2.03;;;1.80;;
6626;SDS011;3349;49.830;8.748;2023-04-15T15:18:41;2.15;;;1.95;;
6626;SDS011;3349;49.830;8.748;2023-04-15T15:21:09;2.83;;;2.30;;
6626;SDS011;3349;49.830;8.748;2023-04-15T15:23:36;3.13;;;2.10;;